createdAt,value
2022-11-26T00:01:30.047Z,7.65
2022-11-26T00:06:35.003Z,7.66
2022-11-26T00:11:36.411Z,7.65
2022-11-26T00:16:37.838Z,7.64
2022-11-26T00:21:41.114Z,7.61
2022-11-26T00:26:42.492Z,7.56
2022-11-26T00:31:43.878Z,7.51
2022-11-26T00:36:45.542Z,7.49
2022-11-26T00:41:50.766Z,7.49
2022-11-26T00:46:52.798Z,7.50
2022-11-26T00:51:54.294Z,7.48
2022-11-26T00:56:55.747Z,7.46
2022-11-26T01:01:57.151Z,7.46
2022-11-26T01:06:58.563Z,7.46
2022-11-26T01:11:59.975Z,7.47
2022-11-26T01:17:01.434Z,7.48
2022-11-26T01:22:02.951Z,7.50
2022-11-26T01:27:08.855Z,7.42
2022-11-26T01:32:11.281Z,7.33
2022-11-26T01:37:14.221Z,7.32
2022-11-26T01:42:41.719Z,7.34
2022-11-26T01:47:44.159Z,7.34
2022-11-26T01:52:45.851Z,7.39
2022-11-26T01:57:48.647Z,7.46
2022-11-26T02:02:50.123Z,7.50
2022-11-26T02:07:53.159Z,7.56
2022-11-26T02:12:54.522Z,7.58
2022-11-26T02:18:02.057Z,7.59
2022-11-26T02:23:25.779Z,7.56
2022-11-26T02:29:00.252Z,7.52
2022-11-26T02:34:21.383Z,7.50
2022-11-26T02:39:26.231Z,7.54
2022-11-26T02:44:46.715Z,7.54
2022-11-26T02:49:51.351Z,7.51
2022-11-26T02:54:52.966Z,7.38
2022-11-26T02:59:54.514Z,7.33
2022-11-26T03:04:59.691Z,7.32
2022-11-26T03:10:02.060Z,7.28
2022-11-26T03:15:03.684Z,7.28
2022-11-26T03:20:08.185Z,7.24
2022-11-26T03:25:10.254Z,7.25
2022-11-26T03:30:12.058Z,7.27
2022-11-26T03:35:13.619Z,7.33
2022-11-26T03:40:16.663Z,7.37
2022-11-26T03:45:18.030Z,7.39
2022-11-26T03:50:19.407Z,7.41
2022-11-26T03:55:21.762Z,7.42
2022-11-26T04:00:23.259Z,7.44
2022-11-26T04:05:24.640Z,7.45
2022-11-26T04:10:26.104Z,7.44
2022-11-26T04:15:27.777Z,7.45
2022-11-26T04:20:29.194Z,7.44
2022-11-26T04:25:30.559Z,7.44
2022-11-26T04:30:31.930Z,7.44
2022-11-26T04:35:33.415Z,7.44
2022-11-26T04:40:34.835Z,7.44
2022-11-26T04:45:36.245Z,7.45
2022-11-26T04:50:37.651Z,7.47
2022-11-26T04:55:39.018Z,7.48
2022-11-26T05:00:40.418Z,7.49
2022-11-26T05:05:41.942Z,7.48
2022-11-26T05:10:43.379Z,7.47
2022-11-26T05:15:44.742Z,7.51
2022-11-26T05:20:46.137Z,7.51
2022-11-26T05:25:47.866Z,7.48
2022-11-26T05:30:49.386Z,7.47
2022-11-26T05:35:50.776Z,7.47
2022-11-26T05:40:52.139Z,7.49
2022-11-26T05:45:53.660Z,7.52
2022-11-26T05:50:59.210Z,7.53
2022-11-26T05:56:00.659Z,7.50
2022-11-26T06:01:07.721Z,7.49
2022-11-26T06:06:09.263Z,7.47
2022-11-26T06:11:12.850Z,7.47
2022-11-26T06:16:14.317Z,7.46
2022-11-26T06:21:15.770Z,7.46
2022-11-26T06:26:17.143Z,7.45
2022-11-26T06:31:18.779Z,7.43
2022-11-26T06:36:20.407Z,7.43
2022-11-26T06:41:21.839Z,7.45
2022-11-26T06:46:23.299Z,7.42
2022-11-26T06:51:27.578Z,7.38
2022-11-26T06:56:29.252Z,7.39
2022-11-26T07:01:30.976Z,7.37
2022-11-26T07:06:33.085Z,7.38
2022-11-26T07:11:35.738Z,7.39
2022-11-26T07:16:37.201Z,7.39
2022-11-26T07:21:38.608Z,7.36
2022-11-26T07:26:39.992Z,7.34
2022-11-26T07:31:41.588Z,7.36
2022-11-26T07:36:43.451Z,7.37
2022-11-26T07:41:44.859Z,7.35
2022-11-26T07:46:46.308Z,7.36
2022-11-26T07:51:47.723Z,7.38
2022-11-26T07:56:49.106Z,7.42
2022-11-26T08:01:50.576Z,7.43
2022-11-26T08:06:52.106Z,7.48
2022-11-26T08:11:53.485Z,7.54
2022-11-26T08:16:54.939Z,7.58
2022-11-26T08:21:56.331Z,7.61
2022-11-26T08:27:00.556Z,7.62
2022-11-26T08:32:02.022Z,7.64
2022-11-26T08:37:03.667Z,7.57
2022-11-26T08:42:05.126Z,7.58
2022-11-26T08:47:06.552Z,7.62
2022-11-26T08:52:07.992Z,7.70
2022-11-26T08:57:09.368Z,7.75
2022-11-26T09:02:15.981Z,7.80
2022-11-26T09:07:19.932Z,7.82
2022-11-26T09:12:23.016Z,7.79
2022-11-26T09:17:26.865Z,7.78
2022-11-26T09:22:28.250Z,7.89
2022-11-26T09:27:29.708Z,7.98
2022-11-26T09:32:34.181Z,7.96
2022-11-26T09:37:36.270Z,7.94
2022-11-26T09:43:08.187Z,8.01
2022-11-26T09:48:16.647Z,8.00
2022-11-26T09:53:28.319Z,8.07
2022-11-26T09:58:49.096Z,8.06
2022-11-26T10:03:51.964Z,8.04
2022-11-26T10:09:14.963Z,8.06
2022-11-26T10:14:53.944Z,8.18
2022-11-26T10:20:16.030Z,8.27
2022-11-26T10:25:20.570Z,8.32
2022-11-26T10:30:25.261Z,8.36
2022-11-26T10:35:29.722Z,8.30
2022-11-26T10:40:32.130Z,8.20
2022-11-26T10:45:54.020Z,8.16
2022-11-26T10:50:55.567Z,8.10
2022-11-26T10:56:04.085Z,8.03
2022-11-26T11:01:06.820Z,8.07
2022-11-26T11:06:33.118Z,8.09
2022-11-26T11:11:34.623Z,8.10
2022-11-26T11:16:46.120Z,8.14
2022-11-26T11:21:48.653Z,8.09
2022-11-26T11:26:55.739Z,8.07
2022-11-26T11:31:57.650Z,8.10
2022-11-26T11:37:06.131Z,8.19
2022-11-26T11:42:22.478Z,8.34
2022-11-26T11:47:47.443Z,8.48
2022-11-26T11:52:51.962Z,8.45
2022-11-26T11:58:18.315Z,8.42
2022-11-26T12:03:26.442Z,8.42
2022-11-26T12:08:54.921Z,8.38
2022-11-26T12:14:20.610Z,8.31
2022-11-26T12:19:29.118Z,8.30
2022-11-26T12:24:46.399Z,8.31
2022-11-26T12:29:55.739Z,8.32
2022-11-26T12:35:04.182Z,8.37
2022-11-26T12:40:41.741Z,8.41
2022-11-26T12:46:04.863Z,8.46
2022-11-26T12:51:18.271Z,8.52
2022-11-26T12:56:41.966Z,8.61
2022-11-26T13:01:43.391Z,8.67
2022-11-26T13:07:08.049Z,8.72
2022-11-26T13:12:42.371Z,8.75
2022-11-26T13:17:46.340Z,8.74
2022-11-26T13:23:33.267Z,8.86
2022-11-26T13:28:43.662Z,8.85
2022-11-26T13:34:03.860Z,8.73
2022-11-26T13:39:13.794Z,8.70
2022-11-26T13:44:49.190Z,8.67
2022-11-26T13:50:07.686Z,8.66
2022-11-26T13:55:17.043Z,8.65
2022-11-26T14:00:27.323Z,8.63
2022-11-26T14:05:48.928Z,8.64
2022-11-26T14:10:50.314Z,8.69
2022-11-26T14:16:01.442Z,8.70
2022-11-26T14:21:03.916Z,8.67
2022-11-26T14:26:06.494Z,8.65
2022-11-26T14:31:25.892Z,8.52
2022-11-26T14:36:29.727Z,8.33
2022-11-26T14:41:43.136Z,8.17
2022-11-26T14:46:48.208Z,7.98
2022-11-26T14:51:53.342Z,7.87
2022-11-26T14:56:58.994Z,7.72
2022-11-26T15:02:00.464Z,7.59
2022-11-26T15:07:01.896Z,7.43
2022-11-26T15:12:11.896Z,7.29
2022-11-26T15:17:17.061Z,7.24
2022-11-26T15:22:44.148Z,7.32
2022-11-26T15:28:01.934Z,7.35
2022-11-26T15:33:12.302Z,7.39
2022-11-26T15:38:16.083Z,7.50
2022-11-26T15:43:42.738Z,7.58
2022-11-26T15:48:53.722Z,7.65
2022-11-26T15:53:55.598Z,7.61
2022-11-26T15:59:00.473Z,7.50
2022-11-26T16:04:06.041Z,7.33
2022-11-26T16:09:13.666Z,7.11
2022-11-26T16:14:32.907Z,6.92
2022-11-26T16:19:34.318Z,6.99
2022-11-26T16:24:43.526Z,7.16
2022-11-26T16:29:45.522Z,7.33
2022-11-26T16:34:46.941Z,7.52
2022-11-26T16:39:50.313Z,7.64
2022-11-26T16:44:51.751Z,7.70
2022-11-26T16:49:53.750Z,7.70
2022-11-26T16:54:55.186Z,7.67
2022-11-26T17:00:05.317Z,7.70
2022-11-26T17:05:07.014Z,7.71
2022-11-26T17:10:18.314Z,7.73
2022-11-26T17:15:19.825Z,7.72
2022-11-26T17:20:26.695Z,7.74
2022-11-26T17:25:29.571Z,7.77
2022-11-26T17:30:31.071Z,7.83
2022-11-26T17:35:32.652Z,7.85
2022-11-26T17:40:34.424Z,7.86
2022-11-26T17:45:36.135Z,7.85
2022-11-26T17:50:37.562Z,7.86
2022-11-26T17:55:39.155Z,7.90
2022-11-26T18:05:56.631Z,7.89
2022-11-26T18:10:58.263Z,7.87
2022-11-26T18:16:00.102Z,7.82
2022-11-26T18:21:01.663Z,7.73
2022-11-26T18:26:03.120Z,7.58
2022-11-26T18:31:04.623Z,7.42
2022-11-26T18:36:06.367Z,7.27
2022-11-26T18:41:08.203Z,7.16
2022-11-26T18:46:17.209Z,7.08
2022-11-26T18:51:18.875Z,7.00
2022-11-26T18:56:24.939Z,6.98
2022-11-26T19:01:39.568Z,6.98
2022-11-26T19:06:45.142Z,6.99
2022-11-26T19:17:21.801Z,7.01
2022-11-26T19:22:23.519Z,6.96
2022-11-26T19:33:25.448Z,6.82
2022-11-26T19:38:47.813Z,6.84
2022-11-26T19:44:21.999Z,6.89
2022-11-26T19:49:23.455Z,6.88
2022-11-26T19:54:28.401Z,6.80
2022-11-26T19:59:30.771Z,6.65
2022-11-26T20:04:32.304Z,6.53
2022-11-26T20:09:33.874Z,6.44
2022-11-26T20:14:35.254Z,6.42
2022-11-26T20:19:37.320Z,6.39
2022-11-26T20:24:38.882Z,6.38
2022-11-26T20:36:24.391Z,6.31
2022-11-26T20:49:40.047Z,6.20
2022-11-26T20:54:53.658Z,6.04
2022-11-26T21:00:24.803Z,5.96
2022-11-26T21:12:20.471Z,5.86
2022-11-26T21:23:34.147Z,5.48
2022-11-26T21:28:36.798Z,5.37
2022-11-26T21:40:08.986Z,5.38
2022-11-26T21:57:26.682Z,5.75
2022-11-26T22:02:40.451Z,5.89
2022-11-26T22:21:02.348Z,6.08
2022-11-26T22:26:04.007Z,6.07
2022-11-26T22:31:14.871Z,6.03
2022-11-26T22:36:16.451Z,5.86
2022-11-26T22:41:18.002Z,5.76
2022-11-26T22:46:21.929Z,5.67
2022-11-26T22:51:24.837Z,5.60
2022-11-26T22:56:28.233Z,5.54
2022-11-26T23:01:31.796Z,5.53
2022-11-26T23:06:34.716Z,5.47
2022-11-26T23:11:38.892Z,5.41
2022-11-26T23:16:42.657Z,5.35
2022-11-26T23:21:46.479Z,5.37
2022-11-26T23:26:47.911Z,5.42
2022-11-26T23:31:50.477Z,5.47
2022-11-26T23:36:51.878Z,5.50
2022-11-26T23:41:53.247Z,5.54
2022-11-26T23:46:54.654Z,5.62
2022-11-26T23:51:56.027Z,5.62
2022-11-26T23:56:57.427Z,5.64
